sensor_id;sensor_type;location;lat;lon;timestamp;P1;durP1;ratioP1;P2;durP2;ratioP2
56269;SDS011;42176;43.240;27.880;2022-10-31T00:01:15;4.68;;;3.65;;
56269;SDS011;42176;43.240;27.880;2022-10-31T00:03:40;7.93;;;3.60;;
56269;SDS011;42176;43.240;27.880;2022-10-31T00:06:06;5.43;;;3.70;;
56269;SDS011;42176;43.240;27.880;2022-10-31T00:08:31;5.68;;;3.78;;
56269;SDS011;42176;43.240;27.880;2022-10-31T00:10:57;7.13;;;4.03;;
56269;SDS011;42176;43.240;27.880;2022-10-31T00:13:22;7.10;;;4.50;;
56269;SDS011;42176;43.240;27.880;2022-10-31T00:15:48;8.00;;;3.88;;
56269;SDS011;42176;43.240;27.880;2022-10-31T00:18:13;7.15;;;3.47;;
56269;SDS011;42176;43.240;27.880;2022-10-31T00:20:39;8.85;;;3.80;;
56269;SDS011;42176;43.240;27.880;2022-10-31T00:23:05;8.48;;;3.85;;
56269;SDS011;42176;43.240;27.880;2022-10-31T00:25:34;5.25;;;3.35;;
56269;SDS011;42176;43.240;27.880;2022-10-31T00:28:02;9.93;;;3.65;;
56269;SDS011;42176;43.240;27.880;2022-10-31T00:33:19;10.50;;;3.65;;
56269;SDS011;42176;43.240;27.880;2022-10-31T00:35:51;7.18;;;3.80;;
56269;SDS011;42176;43.240;27.880;2022-10-31T00:38:16;4.97;;;3.40;;
56269;SDS011;42176;43.240;27.880;2022-10-31T00:40:41;5.55;;;3.80;;
56269;SDS011;42176;43.240;27.880;2022-10-31T00:43:08;7.60;;;3.78;;
56269;SDS011;42176;43.240;27.880;2022-10-31T00:45:33;11.15;;;4.57;;
56269;SDS011;42176;43.240;27.880;2022-10-31T00:47:59;9.50;;;3.80;;
56269;SDS011;42176;43.240;27.880;2022-10-31T00:50:24;8.68;;;4.82;;
56269;SDS011;42176;43.240;27.880;2022-10-31T00:52:50;7.47;;;4.13;;
56269;SDS011;42176;43.240;27.880;2022-10-31T00:55:15;9.40;;;3.75;;
56269;SDS011;42176;43.240;27.880;2022-10-31T00:57:41;8.32;;;4.20;;
56269;SDS011;42176;43.240;27.880;2022-10-31T01:00:06;7.22;;;4.05;;
56269;SDS011;42176;43.240;27.880;2022-10-31T01:02:32;9.05;;;4.22;;
56269;SDS011;42176;43.240;27.880;2022-10-31T01:04:58;5.80;;;3.58;;
56269;SDS011;42176;43.240;27.880;2022-10-31T01:07:23;9.40;;;3.58;;
56269;SDS011;42176;43.240;27.880;2022-10-31T01:09:49;9.05;;;3.72;;
56269;SDS011;42176;43.240;27.880;2022-10-31T01:12:14;5.05;;;3.20;;
56269;SDS011;42176;43.240;27.880;2022-10-31T01:14:46;5.68;;;4.05;;
56269;SDS011;42176;43.240;27.880;2022-10-31T01:17:12;12.20;;;3.53;;
56269;SDS011;42176;43.240;27.880;2022-10-31T01:19:38;11.60;;;3.60;;
56269;SDS011;42176;43.240;27.880;2022-10-31T01:22:04;9.27;;;4.03;;
56269;SDS011;42176;43.240;27.880;2022-10-31T01:24:30;11.98;;;3.95;;
56269;SDS011;42176;43.240;27.880;2022-10-31T01:26:55;6.38;;;3.55;;
56269;SDS011;42176;43.240;27.880;2022-10-31T01:29:21;7.95;;;3.60;;
56269;SDS011;42176;43.240;27.880;2022-10-31T01:31:46;7.78;;;4.10;;
56269;SDS011;42176;43.240;27.880;2022-10-31T01:34:12;5.93;;;3.60;;
56269;SDS011;42176;43.240;27.880;2022-10-31T01:36:40;7.38;;;4.22;;
56269;SDS011;42176;43.240;27.880;2022-10-31T01:39:09;9.73;;;4.63;;
56269;SDS011;42176;43.240;27.880;2022-10-31T01:41:38;4.90;;;3.60;;
56269;SDS011;42176;43.240;27.880;2022-10-31T01:46:44;9.77;;;4.57;;
56269;SDS011;42176;43.240;27.880;2022-10-31T01:49:14;8.15;;;3.75;;
56269;SDS011;42176;43.240;27.880;2022-10-31T01:51:48;7.80;;;3.60;;
56269;SDS011;42176;43.240;27.880;2022-10-31T01:54:19;9.07;;;3.83;;
56269;SDS011;42176;43.240;27.880;2022-10-31T01:56:48;12.07;;;3.58;;
56269;SDS011;42176;43.240;27.880;2022-10-31T01:59:17;5.47;;;3.72;;
56269;SDS011;42176;43.240;27.880;2022-10-31T02:01:46;9.48;;;3.53;;
56269;SDS011;42176;43.240;27.880;2022-10-31T02:04:14;7.97;;;3.95;;
56269;SDS011;42176;43.240;27.880;2022-10-31T02:07:01;8.82;;;3.83;;
56269;SDS011;42176;43.240;27.880;2022-10-31T02:09:33;6.30;;;3.65;;
56269;SDS011;42176;43.240;27.880;2022-10-31T02:11:59;10.85;;;3.83;;
56269;SDS011;42176;43.240;27.880;2022-10-31T02:14:26;9.02;;;3.35;;
56269;SDS011;42176;43.240;27.880;2022-10-31T02:16:54;9.23;;;5.18;;
56269;SDS011;42176;43.240;27.880;2022-10-31T02:22:45;10.93;;;6.43;;
56269;SDS011;42176;43.240;27.880;2022-10-31T02:33:42;27.27;;;8.23;;
56269;SDS011;42176;43.240;27.880;2022-10-31T02:36:28;25.63;;;7.28;;
56269;SDS011;42176;43.240;27.880;2022-10-31T02:39:18;11.52;;;5.82;;
56269;SDS011;42176;43.240;27.880;2022-10-31T02:52:51;8.75;;;4.32;;
56269;SDS011;42176;43.240;27.880;2022-10-31T02:57:49;11.97;;;4.67;;
56269;SDS011;42176;43.240;27.880;2022-10-31T03:00:19;7.95;;;4.28;;
56269;SDS011;42176;43.240;27.880;2022-10-31T03:05:24;6.43;;;3.72;;
56269;SDS011;42176;43.240;27.880;2022-10-31T03:13:22;6.68;;;4.15;;
56269;SDS011;42176;43.240;27.880;2022-10-31T03:15:50;6.72;;;4.22;;
56269;SDS011;42176;43.240;27.880;2022-10-31T03:18:40;9.25;;;4.30;;
56269;SDS011;42176;43.240;27.880;2022-10-31T03:21:10;12.00;;;3.60;;
56269;SDS011;42176;43.240;27.880;2022-10-31T03:24:03;12.15;;;4.38;;
56269;SDS011;42176;43.240;27.880;2022-10-31T03:26:35;6.95;;;4.28;;
56269;SDS011;42176;43.240;27.880;2022-10-31T03:29:04;11.30;;;4.50;;
56269;SDS011;42176;43.240;27.880;2022-10-31T03:31:35;10.27;;;4.20;;
56269;SDS011;42176;43.240;27.880;2022-10-31T03:34:04;9.43;;;4.70;;
56269;SDS011;42176;43.240;27.880;2022-10-31T03:36:33;6.18;;;3.78;;
56269;SDS011;42176;43.240;27.880;2022-10-31T03:39:01;8.68;;;4.05;;
56269;SDS011;42176;43.240;27.880;2022-10-31T03:41:30;8.40;;;4.43;;
56269;SDS011;42176;43.240;27.880;2022-10-31T03:44:00;8.85;;;4.05;;
56269;SDS011;42176;43.240;27.880;2022-10-31T03:46:30;12.57;;;4.73;;
56269;SDS011;42176;43.240;27.880;2022-10-31T03:48:56;9.60;;;4.70;;
56269;SDS011;42176;43.240;27.880;2022-10-31T03:51:24;8.38;;;3.55;;
56269;SDS011;42176;43.240;27.880;2022-10-31T03:54:18;6.40;;;3.85;;
56269;SDS011;42176;43.240;27.880;2022-10-31T03:56:56;7.70;;;4.07;;
56269;SDS011;42176;43.240;27.880;2022-10-31T03:59:28;10.75;;;4.40;;
56269;SDS011;42176;43.240;27.880;2022-10-31T04:02:01;8.15;;;4.57;;
56269;SDS011;42176;43.240;27.880;2022-10-31T04:04:31;11.23;;;4.15;;
56269;SDS011;42176;43.240;27.880;2022-10-31T04:06:58;6.53;;;3.85;;
56269;SDS011;42176;43.240;27.880;2022-10-31T04:09:26;9.68;;;4.47;;
56269;SDS011;42176;43.240;27.880;2022-10-31T04:11:54;9.77;;;3.35;;
56269;SDS011;42176;43.240;27.880;2022-10-31T04:14:22;7.75;;;4.28;;
56269;SDS011;42176;43.240;27.880;2022-10-31T04:16:50;5.97;;;4.03;;
56269;SDS011;42176;43.240;27.880;2022-10-31T04:19:16;8.65;;;3.80;;
56269;SDS011;42176;43.240;27.880;2022-10-31T04:21:41;11.15;;;4.40;;
56269;SDS011;42176;43.240;27.880;2022-10-31T04:24:08;8.18;;;4.80;;
56269;SDS011;42176;43.240;27.880;2022-10-31T04:26:34;13.23;;;6.78;;
56269;SDS011;42176;43.240;27.880;2022-10-31T04:29:00;13.93;;;7.20;;
56269;SDS011;42176;43.240;27.880;2022-10-31T04:31:25;15.18;;;7.40;;
56269;SDS011;42176;43.240;27.880;2022-10-31T04:33:51;10.02;;;6.18;;
56269;SDS011;42176;43.240;27.880;2022-10-31T04:36:16;12.02;;;6.53;;
56269;SDS011;42176;43.240;27.880;2022-10-31T04:38:42;17.60;;;8.85;;
56269;SDS011;42176;43.240;27.880;2022-10-31T04:41:07;16.73;;;8.48;;
56269;SDS011;42176;43.240;27.880;2022-10-31T04:43:33;24.70;;;15.52;;
56269;SDS011;42176;43.240;27.880;2022-10-31T04:45:58;15.18;;;7.90;;
56269;SDS011;42176;43.240;27.880;2022-10-31T04:48:24;22.00;;;6.95;;
56269;SDS011;42176;43.240;27.880;2022-10-31T04:50:50;15.73;;;9.32;;
56269;SDS011;42176;43.240;27.880;2022-10-31T04:53:15;23.48;;;9.60;;
56269;SDS011;42176;43.240;27.880;2022-10-31T04:55:41;17.10;;;9.10;;
56269;SDS011;42176;43.240;27.880;2022-10-31T04:58:06;29.05;;;10.85;;
56269;SDS011;42176;43.240;27.880;2022-10-31T05:00:31;31.80;;;15.95;;
56269;SDS011;42176;43.240;27.880;2022-10-31T05:02:57;39.35;;;18.80;;
56269;SDS011;42176;43.240;27.880;2022-10-31T05:05:27;35.00;;;19.13;;
56269;SDS011;42176;43.240;27.880;2022-10-31T05:07:54;42.30;;;19.90;;
56269;SDS011;42176;43.240;27.880;2022-10-31T05:10:22;44.38;;;20.85;;
56269;SDS011;42176;43.240;27.880;2022-10-31T05:12:50;39.28;;;19.30;;
56269;SDS011;42176;43.240;27.880;2022-10-31T05:15:18;34.47;;;17.38;;
56269;SDS011;42176;43.240;27.880;2022-10-31T05:17:46;34.60;;;19.08;;
56269;SDS011;42176;43.240;27.880;2022-10-31T05:20:12;24.25;;;15.02;;
56269;SDS011;42176;43.240;27.880;2022-10-31T05:22:46;31.75;;;16.35;;
56269;SDS011;42176;43.240;27.880;2022-10-31T05:25:13;25.10;;;12.32;;
56269;SDS011;42176;43.240;27.880;2022-10-31T05:27:43;25.92;;;11.18;;
56269;SDS011;42176;43.240;27.880;2022-10-31T05:30:10;13.68;;;7.93;;
56269;SDS011;42176;43.240;27.880;2022-10-31T05:32:44;9.73;;;6.20;;
56269;SDS011;42176;43.240;27.880;2022-10-31T05:35:12;10.75;;;5.30;;
56269;SDS011;42176;43.240;27.880;2022-10-31T05:37:39;12.82;;;5.63;;
56269;SDS011;42176;43.240;27.880;2022-10-31T05:40:06;8.63;;;4.65;;
56269;SDS011;42176;43.240;27.880;2022-10-31T05:42:33;12.65;;;5.60;;
56269;SDS011;42176;43.240;27.880;2022-10-31T05:44:59;11.32;;;5.45;;
56269;SDS011;42176;43.240;27.880;2022-10-31T05:47:24;9.45;;;5.47;;
56269;SDS011;42176;43.240;27.880;2022-10-31T05:49:50;14.20;;;5.60;;
56269;SDS011;42176;43.240;27.880;2022-10-31T05:52:16;16.02;;;6.28;;
56269;SDS011;42176;43.240;27.880;2022-10-31T05:54:42;10.93;;;6.53;;
56269;SDS011;42176;43.240;27.880;2022-10-31T05:57:07;10.38;;;6.28;;
56269;SDS011;42176;43.240;27.880;2022-10-31T05:59:33;11.45;;;6.20;;
56269;SDS011;42176;43.240;27.880;2022-10-31T06:01:58;27.27;;;8.90;;
56269;SDS011;42176;43.240;27.880;2022-10-31T06:04:24;17.35;;;9.00;;
56269;SDS011;42176;43.240;27.880;2022-10-31T06:06:49;18.58;;;9.93;;
56269;SDS011;42176;43.240;27.880;2022-10-31T06:09:15;15.52;;;9.38;;
56269;SDS011;42176;43.240;27.880;2022-10-31T06:11:40;30.45;;;14.20;;
56269;SDS011;42176;43.240;27.880;2022-10-31T06:14:06;22.60;;;12.18;;
56269;SDS011;42176;43.240;27.880;2022-10-31T06:16:31;30.65;;;14.48;;
56269;SDS011;42176;43.240;27.880;2022-10-31T06:18:57;24.10;;;14.27;;
56269;SDS011;42176;43.240;27.880;2022-10-31T06:21:22;25.33;;;14.40;;
56269;SDS011;42176;43.240;27.880;2022-10-31T06:23:48;30.48;;;15.18;;
56269;SDS011;42176;43.240;27.880;2022-10-31T06:26:13;27.42;;;15.50;;
56269;SDS011;42176;43.240;27.880;2022-10-31T06:28:39;28.17;;;14.10;;
56269;SDS011;42176;43.240;27.880;2022-10-31T06:31:04;27.40;;;13.35;;
56269;SDS011;42176;43.240;27.880;2022-10-31T06:33:30;26.23;;;15.93;;
56269;SDS011;42176;43.240;27.880;2022-10-31T06:35:55;35.05;;;16.45;;
56269;SDS011;42176;43.240;27.880;2022-10-31T06:38:21;35.80;;;16.48;;
56269;SDS011;42176;43.240;27.880;2022-10-31T06:40:46;29.80;;;14.20;;
56269;SDS011;42176;43.240;27.880;2022-10-31T06:43:12;34.65;;;15.50;;
56269;SDS011;42176;43.240;27.880;2022-10-31T06:45:39;32.50;;;14.27;;
56269;SDS011;42176;43.240;27.880;2022-10-31T06:48:04;42.13;;;14.35;;
56269;SDS011;42176;43.240;27.880;2022-10-31T06:50:30;29.10;;;13.90;;
56269;SDS011;42176;43.240;27.880;2022-10-31T06:52:56;23.65;;;13.93;;
56269;SDS011;42176;43.240;27.880;2022-10-31T06:55:23;30.05;;;13.25;;
56269;SDS011;42176;43.240;27.880;2022-10-31T06:57:50;25.25;;;13.02;;
56269;SDS011;42176;43.240;27.880;2022-10-31T07:00:19;28.75;;;12.43;;
56269;SDS011;42176;43.240;27.880;2022-10-31T07:05:27;23.08;;;12.38;;
56269;SDS011;42176;43.240;27.880;2022-10-31T07:07:57;29.40;;;13.40;;
56269;SDS011;42176;43.240;27.880;2022-10-31T07:10:24;25.40;;;12.82;;
56269;SDS011;42176;43.240;27.880;2022-10-31T07:12:54;33.53;;;12.10;;
56269;SDS011;42176;43.240;27.880;2022-10-31T07:15:30;20.13;;;10.85;;
56269;SDS011;42176;43.240;27.880;2022-10-31T07:17:59;27.77;;;11.25;;
56269;SDS011;42176;43.240;27.880;2022-10-31T07:20:29;27.98;;;10.98;;
56269;SDS011;42176;43.240;27.880;2022-10-31T07:22:55;19.00;;;9.57;;
56269;SDS011;42176;43.240;27.880;2022-10-31T07:25:21;32.67;;;11.48;;
56269;SDS011;42176;43.240;27.880;2022-10-31T07:27:47;23.92;;;11.27;;
56269;SDS011;42176;43.240;27.880;2022-10-31T07:30:13;24.20;;;11.65;;
56269;SDS011;42176;43.240;27.880;2022-10-31T07:35:09;21.65;;;11.93;;
56269;SDS011;42176;43.240;27.880;2022-10-31T07:37:36;23.15;;;12.45;;
56269;SDS011;42176;43.240;27.880;2022-10-31T07:40:05;24.85;;;12.48;;
56269;SDS011;42176;43.240;27.880;2022-10-31T07:42:37;33.67;;;13.20;;
56269;SDS011;42176;43.240;27.880;2022-10-31T07:45:07;25.42;;;12.88;;
56269;SDS011;42176;43.240;27.880;2022-10-31T07:47:40;27.83;;;13.65;;
56269;SDS011;42176;43.240;27.880;2022-10-31T07:50:07;23.42;;;12.90;;
56269;SDS011;42176;43.240;27.880;2022-10-31T07:52:34;31.67;;;13.15;;
56269;SDS011;42176;43.240;27.880;2022-10-31T07:55:00;20.05;;;11.82;;
56269;SDS011;42176;43.240;27.880;2022-10-31T07:57:25;27.60;;;12.10;;
56269;SDS011;42176;43.240;27.880;2022-10-31T07:59:51;21.67;;;10.48;;
56269;SDS011;42176;43.240;27.880;2022-10-31T08:02:16;27.33;;;11.07;;
56269;SDS011;42176;43.240;27.880;2022-10-31T08:04:48;25.60;;;11.23;;
56269;SDS011;42176;43.240;27.880;2022-10-31T08:07:14;21.40;;;11.20;;
56269;SDS011;42176;43.240;27.880;2022-10-31T08:09:40;34.17;;;13.13;;
56269;SDS011;42176;43.240;27.880;2022-10-31T08:12:05;28.75;;;11.43;;
56269;SDS011;42176;43.240;27.880;2022-10-31T08:14:31;19.83;;;11.65;;
56269;SDS011;42176;43.240;27.880;2022-10-31T08:16:56;18.83;;;11.07;;
56269;SDS011;42176;43.240;27.880;2022-10-31T08:19:22;27.10;;;11.73;;
56269;SDS011;42176;43.240;27.880;2022-10-31T08:21:51;27.50;;;11.35;;
56269;SDS011;42176;43.240;27.880;2022-10-31T08:24:23;19.38;;;10.77;;
56269;SDS011;42176;43.240;27.880;2022-10-31T08:26:49;22.67;;;10.77;;
56269;SDS011;42176;43.240;27.880;2022-10-31T08:29:15;21.33;;;12.15;;
56269;SDS011;42176;43.240;27.880;2022-10-31T08:31:41;19.70;;;10.18;;
56269;SDS011;42176;43.240;27.880;2022-10-31T08:34:07;19.15;;;11.35;;
56269;SDS011;42176;43.240;27.880;2022-10-31T08:36:35;16.73;;;11.25;;
56269;SDS011;42176;43.240;27.880;2022-10-31T08:39:03;22.13;;;11.95;;
56269;SDS011;42176;43.240;27.880;2022-10-31T08:41:28;24.90;;;15.52;;
56269;SDS011;42176;43.240;27.880;2022-10-31T08:43:54;26.25;;;14.73;;
56269;SDS011;42176;43.240;27.880;2022-10-31T08:46:19;23.20;;;11.57;;
56269;SDS011;42176;43.240;27.880;2022-10-31T08:48:47;19.80;;;10.65;;
56269;SDS011;42176;43.240;27.880;2022-10-31T08:51:15;23.38;;;11.27;;
56269;SDS011;42176;43.240;27.880;2022-10-31T08:53:41;23.98;;;12.50;;
56269;SDS011;42176;43.240;27.880;2022-10-31T08:56:06;24.25;;;11.80;;
56269;SDS011;42176;43.240;27.880;2022-10-31T08:58:32;22.75;;;11.50;;
56269;SDS011;42176;43.240;27.880;2022-10-31T09:00:59;22.40;;;11.70;;
56269;SDS011;42176;43.240;27.880;2022-10-31T09:03:26;21.95;;;10.85;;
56269;SDS011;42176;43.240;27.880;2022-10-31T09:06:00;30.65;;;12.85;;
56269;SDS011;42176;43.240;27.880;2022-10-31T09:08:28;21.50;;;11.35;;
56269;SDS011;42176;43.240;27.880;2022-10-31T09:10:55;17.35;;;10.98;;
56269;SDS011;42176;43.240;27.880;2022-10-31T09:13:21;19.02;;;10.75;;
56269;SDS011;42176;43.240;27.880;2022-10-31T09:15:48;20.13;;;10.20;;
56269;SDS011;42176;43.240;27.880;2022-10-31T09:18:15;18.70;;;10.52;;
56269;SDS011;42176;43.240;27.880;2022-10-31T09:20:43;24.05;;;11.57;;
56269;SDS011;42176;43.240;27.880;2022-10-31T09:23:10;23.10;;;10.73;;
56269;SDS011;42176;43.240;27.880;2022-10-31T09:25:37;25.25;;;11.38;;
56269;SDS011;42176;43.240;27.880;2022-10-31T09:28:04;17.83;;;10.32;;
56269;SDS011;42176;43.240;27.880;2022-10-31T09:30:37;21.40;;;10.68;;
56269;SDS011;42176;43.240;27.880;2022-10-31T09:33:10;20.02;;;10.07;;
56269;SDS011;42176;43.240;27.880;2022-10-31T09:35:37;25.20;;;12.25;;
56269;SDS011;42176;43.240;27.880;2022-10-31T09:38:03;22.48;;;11.55;;
56269;SDS011;42176;43.240;27.880;2022-10-31T09:50:58;18.55;;;9.43;;
56269;SDS011;42176;43.240;27.880;2022-10-31T09:55:56;29.10;;;9.57;;
56269;SDS011;42176;43.240;27.880;2022-10-31T09:58:24;16.55;;;9.43;;
56269;SDS011;42176;43.240;27.880;2022-10-31T10:00:53;19.48;;;9.73;;
56269;SDS011;42176;43.240;27.880;2022-10-31T10:06:01;20.60;;;10.05;;
56269;SDS011;42176;43.240;27.880;2022-10-31T10:08:30;18.77;;;9.35;;
56269;SDS011;42176;43.240;27.880;2022-10-31T10:14:21;18.50;;;10.35;;
56269;SDS011;42176;43.240;27.880;2022-10-31T10:22:52;17.77;;;10.73;;
56269;SDS011;42176;43.240;27.880;2022-10-31T10:25:21;18.73;;;8.75;;
56269;SDS011;42176;43.240;27.880;2022-10-31T10:30:42;21.77;;;8.55;;
56269;SDS011;42176;43.240;27.880;2022-10-31T10:33:16;16.30;;;8.60;;
56269;SDS011;42176;43.240;27.880;2022-10-31T10:35:47;11.90;;;7.47;;
56269;SDS011;42176;43.240;27.880;2022-10-31T10:38:53;17.23;;;8.25;;
56269;SDS011;42176;43.240;27.880;2022-10-31T10:41:24;19.83;;;8.38;;
56269;SDS011;42176;43.240;27.880;2022-10-31T10:43:52;19.15;;;8.68;;
56269;SDS011;42176;43.240;27.880;2022-10-31T10:49:20;14.18;;;7.30;;
56269;SDS011;42176;43.240;27.880;2022-10-31T11:00:31;12.73;;;7.55;;
56269;SDS011;42176;43.240;27.880;2022-10-31T11:03:01;12.50;;;7.05;;
56269;SDS011;42176;43.240;27.880;2022-10-31T11:05:33;21.67;;;7.40;;
56269;SDS011;42176;43.240;27.880;2022-10-31T11:08:03;14.75;;;7.80;;
56269;SDS011;42176;43.240;27.880;2022-10-31T11:10:29;12.02;;;7.18;;
56269;SDS011;42176;43.240;27.880;2022-10-31T11:13:06;14.82;;;7.43;;
56269;SDS011;42176;43.240;27.880;2022-10-31T11:15:39;10.70;;;6.70;;
56269;SDS011;42176;43.240;27.880;2022-10-31T11:18:37;18.35;;;7.35;;
56269;SDS011;42176;43.240;27.880;2022-10-31T11:21:19;13.32;;;7.85;;
56269;SDS011;42176;43.240;27.880;2022-10-31T11:26:35;17.23;;;6.60;;
56269;SDS011;42176;43.240;27.880;2022-10-31T11:29:03;13.82;;;6.88;;
56269;SDS011;42176;43.240;27.880;2022-10-31T11:31:30;12.88;;;6.35;;
56269;SDS011;42176;43.240;27.880;2022-10-31T11:34:01;15.32;;;6.93;;
56269;SDS011;42176;43.240;27.880;2022-10-31T11:36:34;17.42;;;6.32;;
56269;SDS011;42176;43.240;27.880;2022-10-31T11:39:03;11.20;;;6.30;;
56269;SDS011;42176;43.240;27.880;2022-10-31T11:41:37;9.45;;;5.90;;
56269;SDS011;42176;43.240;27.880;2022-10-31T11:44:25;15.95;;;7.40;;
56269;SDS011;42176;43.240;27.880;2022-10-31T11:46:52;10.55;;;5.78;;
56269;SDS011;42176;43.240;27.880;2022-10-31T11:49:56;14.38;;;6.05;;
56269;SDS011;42176;43.240;27.880;2022-10-31T11:52:28;13.27;;;6.20;;
56269;SDS011;42176;43.240;27.880;2022-10-31T11:57:47;15.35;;;6.13;;
56269;SDS011;42176;43.240;27.880;2022-10-31T12:00:22;9.07;;;5.50;;
56269;SDS011;42176;43.240;27.880;2022-10-31T12:02:51;9.82;;;5.63;;
56269;SDS011;42176;43.240;27.880;2022-10-31T12:05:28;12.38;;;6.13;;
56269;SDS011;42176;43.240;27.880;2022-10-31T12:07:58;9.88;;;5.15;;
56269;SDS011;42176;43.240;27.880;2022-10-31T12:10:26;9.73;;;5.55;;
56269;SDS011;42176;43.240;27.880;2022-10-31T12:15:44;10.80;;;5.43;;
56269;SDS011;42176;43.240;27.880;2022-10-31T12:18:25;12.15;;;6.00;;
56269;SDS011;42176;43.240;27.880;2022-10-31T12:21:22;9.68;;;5.50;;
56269;SDS011;42176;43.240;27.880;2022-10-31T12:32:38;11.30;;;6.50;;
56269;SDS011;42176;43.240;27.880;2022-10-31T12:43:47;7.55;;;4.47;;
56269;SDS011;42176;43.240;27.880;2022-10-31T12:54:37;10.65;;;5.93;;
56269;SDS011;42176;43.240;27.880;2022-10-31T12:59:53;17.10;;;6.00;;
56269;SDS011;42176;43.240;27.880;2022-10-31T13:02:56;13.85;;;4.97;;
56269;SDS011;42176;43.240;27.880;2022-10-31T13:05:27;12.63;;;5.22;;
56269;SDS011;42176;43.240;27.880;2022-10-31T13:12:58;12.83;;;5.53;;
56269;SDS011;42176;43.240;27.880;2022-10-31T13:15:42;9.05;;;4.65;;
56269;SDS011;42176;43.240;27.880;2022-10-31T13:18:28;13.43;;;4.78;;
56269;SDS011;42176;43.240;27.880;2022-10-31T13:21:27;13.90;;;5.97;;
56269;SDS011;42176;43.240;27.880;2022-10-31T13:24:00;9.90;;;4.60;;
56269;SDS011;42176;43.240;27.880;2022-10-31T13:26:37;10.65;;;4.75;;
56269;SDS011;42176;43.240;27.880;2022-10-31T13:31:33;15.82;;;5.10;;
56269;SDS011;42176;43.240;27.880;2022-10-31T13:34:04;12.97;;;5.67;;
56269;SDS011;42176;43.240;27.880;2022-10-31T13:36:48;9.70;;;5.07;;
56269;SDS011;42176;43.240;27.880;2022-10-31T13:45:19;14.93;;;5.93;;
56269;SDS011;42176;43.240;27.880;2022-10-31T13:48:17;11.63;;;6.03;;
56269;SDS011;42176;43.240;27.880;2022-10-31T13:50:55;11.57;;;5.90;;
56269;SDS011;42176;43.240;27.880;2022-10-31T13:56:26;7.07;;;4.53;;
56269;SDS011;42176;43.240;27.880;2022-10-31T14:01:35;224.10;;;21.40;;
56269;SDS011;42176;43.240;27.880;2022-10-31T14:06:36;15.75;;;5.70;;
56269;SDS011;42176;43.240;27.880;2022-10-31T14:09:04;13.52;;;4.85;;
56269;SDS011;42176;43.240;27.880;2022-10-31T14:11:33;7.88;;;4.47;;
56269;SDS011;42176;43.240;27.880;2022-10-31T14:13:59;12.07;;;5.63;;
56269;SDS011;42176;43.240;27.880;2022-10-31T14:16:27;9.30;;;3.65;;
56269;SDS011;42176;43.240;27.880;2022-10-31T14:21:38;12.32;;;4.28;;
56269;SDS011;42176;43.240;27.880;2022-10-31T14:32:05;7.88;;;3.92;;
56269;SDS011;42176;43.240;27.880;2022-10-31T14:34:41;10.63;;;2.58;;
56269;SDS011;42176;43.240;27.880;2022-10-31T14:51:58;7.57;;;2.90;;
56269;SDS011;42176;43.240;27.880;2022-10-31T14:57:00;12.15;;;2.55;;
56269;SDS011;42176;43.240;27.880;2022-10-31T14:59:31;8.10;;;2.35;;
56269;SDS011;42176;43.240;27.880;2022-10-31T15:02:09;2.75;;;2.22;;
56269;SDS011;42176;43.240;27.880;2022-10-31T15:04:40;6.47;;;3.05;;
56269;SDS011;42176;43.240;27.880;2022-10-31T15:07:14;5.25;;;3.20;;
56269;SDS011;42176;43.240;27.880;2022-10-31T15:09:57;6.65;;;4.20;;
56269;SDS011;42176;43.240;27.880;2022-10-31T15:15:22;4.05;;;3.20;;
56269;SDS011;42176;43.240;27.880;2022-10-31T15:17:53;6.53;;;2.90;;
56269;SDS011;42176;43.240;27.880;2022-10-31T15:20:22;4.25;;;3.20;;
56269;SDS011;42176;43.240;27.880;2022-10-31T15:22:49;2.97;;;2.47;;
56269;SDS011;42176;43.240;27.880;2022-10-31T15:25:19;5.68;;;2.22;;
56269;SDS011;42176;43.240;27.880;2022-10-31T15:27:48;7.63;;;2.22;;
56269;SDS011;42176;43.240;27.880;2022-10-31T15:32:53;5.32;;;2.15;;
56269;SDS011;42176;43.240;27.880;2022-10-31T15:35:20;4.70;;;2.05;;
56269;SDS011;42176;43.240;27.880;2022-10-31T15:37:53;5.88;;;2.38;;
56269;SDS011;42176;43.240;27.880;2022-10-31T15:40:23;5.65;;;2.40;;
56269;SDS011;42176;43.240;27.880;2022-10-31T15:42:56;7.00;;;2.53;;
56269;SDS011;42176;43.240;27.880;2022-10-31T15:45:25;8.15;;;3.63;;
56269;SDS011;42176;43.240;27.880;2022-10-31T15:50:32;10.63;;;5.30;;
56269;SDS011;42176;43.240;27.880;2022-10-31T15:53:06;15.13;;;8.77;;
56269;SDS011;42176;43.240;27.880;2022-10-31T15:55:52;37.05;;;15.90;;
56269;SDS011;42176;43.240;27.880;2022-10-31T15:58:20;32.80;;;14.38;;
56269;SDS011;42176;43.240;27.880;2022-10-31T16:00:56;22.67;;;11.82;;
56269;SDS011;42176;43.240;27.880;2022-10-31T16:03:25;22.13;;;10.23;;
56269;SDS011;42176;43.240;27.880;2022-10-31T16:06:03;60.63;;;26.25;;
56269;SDS011;42176;43.240;27.880;2022-10-31T16:16:45;12.07;;;4.45;;
56269;SDS011;42176;43.240;27.880;2022-10-31T16:19:24;9.38;;;4.20;;
56269;SDS011;42176;43.240;27.880;2022-10-31T16:21:55;6.95;;;3.47;;
56269;SDS011;42176;43.240;27.880;2022-10-31T16:24:33;9.40;;;3.25;;
56269;SDS011;42176;43.240;27.880;2022-10-31T16:27:05;12.30;;;3.40;;
56269;SDS011;42176;43.240;27.880;2022-10-31T16:29:48;4.18;;;2.72;;
56269;SDS011;42176;43.240;27.880;2022-10-31T16:37:36;7.55;;;3.25;;
56269;SDS011;42176;43.240;27.880;2022-10-31T16:40:02;5.78;;;2.35;;
56269;SDS011;42176;43.240;27.880;2022-10-31T16:42:28;5.82;;;2.67;;
56269;SDS011;42176;43.240;27.880;2022-10-31T16:44:53;6.18;;;2.97;;
56269;SDS011;42176;43.240;27.880;2022-10-31T16:47:21;7.38;;;2.53;;
56269;SDS011;42176;43.240;27.880;2022-10-31T16:49:47;10.73;;;3.08;;
56269;SDS011;42176;43.240;27.880;2022-10-31T16:52:14;11.27;;;4.45;;
56269;SDS011;42176;43.240;27.880;2022-10-31T16:54:41;6.45;;;4.07;;
56269;SDS011;42176;43.240;27.880;2022-10-31T16:57:06;5.28;;;3.60;;
56269;SDS011;42176;43.240;27.880;2022-10-31T16:59:35;7.22;;;2.92;;
56269;SDS011;42176;43.240;27.880;2022-10-31T17:04:38;13.20;;;3.83;;
56269;SDS011;42176;43.240;27.880;2022-10-31T17:07:03;4.25;;;3.03;;
56269;SDS011;42176;43.240;27.880;2022-10-31T17:09:29;8.82;;;3.38;;
56269;SDS011;42176;43.240;27.880;2022-10-31T17:12:00;7.30;;;3.65;;
56269;SDS011;42176;43.240;27.880;2022-10-31T17:14:25;7.72;;;3.53;;
56269;SDS011;42176;43.240;27.880;2022-10-31T17:16:51;6.85;;;3.40;;
56269;SDS011;42176;43.240;27.880;2022-10-31T17:19:17;4.85;;;2.83;;
56269;SDS011;42176;43.240;27.880;2022-10-31T17:21:54;8.20;;;3.95;;
56269;SDS011;42176;43.240;27.880;2022-10-31T17:24:20;8.63;;;4.18;;
56269;SDS011;42176;43.240;27.880;2022-10-31T17:26:48;5.10;;;3.00;;
56269;SDS011;42176;43.240;27.880;2022-10-31T17:29:13;8.77;;;3.55;;
56269;SDS011;42176;43.240;27.880;2022-10-31T17:31:39;8.85;;;4.38;;
56269;SDS011;42176;43.240;27.880;2022-10-31T17:34:06;6.47;;;3.38;;
56269;SDS011;42176;43.240;27.880;2022-10-31T17:36:32;5.90;;;3.58;;
56269;SDS011;42176;43.240;27.880;2022-10-31T17:38:59;4.15;;;3.47;;
56269;SDS011;42176;43.240;27.880;2022-10-31T17:41:24;6.53;;;3.90;;
56269;SDS011;42176;43.240;27.880;2022-10-31T17:43:56;6.60;;;3.83;;
56269;SDS011;42176;43.240;27.880;2022-10-31T17:46:22;5.35;;;3.38;;
56269;SDS011;42176;43.240;27.880;2022-10-31T17:48:47;4.40;;;3.63;;
56269;SDS011;42176;43.240;27.880;2022-10-31T17:51:13;8.63;;;2.92;;